Nearby METAR Reports

 

KO22 - Columbia, California, USA
Distance from station: SSW 15mi, 25km
Updated: Thu, 29-Jun-2017 1:35am PDT
Clear
Clear
 Wind from calm
Wind: Calm
Temperature: 57°F , 14°C
Dew Point: 50°F , 10°C
Humidity: 77%
Barometer: 29.96 inHg , 1014.6 hPa
Clouds: Clear
Visibility: 10 miles , 16 km
2017/06/29 08:35 KO22 290835Z AUTO 00000KT 10SM CLR 14/10 A2996 RMK AO1
KPVF - Placerville, California, USA
Distance from station: NW 39mi, 63km
Updated: Thu, 29-Jun-2017 1:35am PDT
Clear
Clear
 Wind from ENE
Wind: ENE 8 mph , 13 km/h
Temperature: 68°F , 20°C
Dew Point: 41°F , 5°C
Humidity: 38%
Barometer: 29.96 inHg , 1014.6 hPa
Clouds: Clear
Visibility: 10 miles , 16 km
2017/06/29 08:35 KPVF 290835Z AUTO 06007KT 10SM CLR 20/05 A2996 RMK AO1
 
KBAN - Bridgeport(Mcmwt, California, USA
Distance from station: E 45mi, 73km
Updated: Thu, 29-Jun-2017 1:52am PDT
Clear
Clear
 Wind from calm
Wind: Calm
Temperature: 45°F , 7°C
Dew Point: 21°F , -6°C
Humidity: 39%
Barometer: 30.20 inHg , 1022.7 hPa
Clouds: Clear
Visibility: 10 miles , 16 km
2017/06/29 08:52 KBAN 290852Z AUTO 00000KT 10SM CLR 07/M06 A3020 RMK AO2 SLP131 T00671056 51005 $
KTVL - South Lake Tahoe, California, USA
Distance from station: NNE 49mi, 78km
Updated: Thu, 29-Jun-2017 1:53am PDT
Clear
Clear
 Wind from calm
Wind: Calm
Temperature: 43°F , 6°C
Dew Point: 34°F , 1°C
Humidity: 71%
Barometer: 30.17 inHg , 1021.7 hPa
Clouds: Clear
Visibility: 10 miles , 16 km
2017/06/29 08:53 KTVL 290853Z AUTO 00000KT 10SM CLR 06/01 A3017 RMK AO2 SLP167 T00610011 55001
 
KSCK - Stockton, California, USA
Distance from station: WSW 54mi, 87km
Updated: Thu, 29-Jun-2017 1:55am PDT
Clear
Clear
 Wind from WNW
Wind: WNW 7 mph , 11 km/h
Temperature: 63°F , 17°C
Dew Point: 48°F , 9°C
Humidity: 59%
Barometer: 29.85 inHg , 1010.8 hPa
Clouds: Clear
Visibility: 10 miles , 16 km
2017/06/29 08:55 KSCK 290855Z AUTO 29006KT 10SM CLR 17/09 A2985 RMK AO2 SLP108 T01720094 50002
KMHR - Mather Field, California, USA
Distance from station: WNW 54mi, 88km
Updated: Wed, 28-Jun-2017 11:30pm PDT
NOT Current
Clear
Clear
 Wind from SSE
Wind: SSE 6 mph , 9 km/h
Temperature: 64°F , 18°C
Dew Point: 54°F , 12°C
Humidity: 68%
Barometer: 29.85 inHg , 1010.8 hPa
Clouds: Clear
Visibility: 10 miles , 16 km
2017/06/29 06:30 KMHR 290630Z 15005KT 10SM SKC 18/12 A2985
 
KMOD - Modesto, California, USA
Distance from station: SW 55mi, 88km
Updated: Thu, 29-Jun-2017 1:53am PDT
Clear
Clear
 Wind from N
Wind: N 6 mph , 9 km/h
Temperature: 68°F , 20°C
Dew Point: 48°F , 9°C
Humidity: 49%
Barometer: 29.85 inHg , 1010.8 hPa
Clouds: Clear
Visibility: 10 miles , 16 km
2017/06/29 08:53 KMOD 290853Z AUTO 35005KT 10SM CLR 20/09 A2985 RMK AO2 SLP106 T02000089 52002
KMER - Merced/Castle Af, California, USA
Distance from station: S 61mi, 98km
Updated: Thu, 29-Jun-2017 1:35am PDT
Clear
Clear
 Wind from WNW
Wind: WNW 3 mph , 6 km/h
Temperature: 64°F , 18°C
Dew Point: 52°F , 11°C
Humidity: 64%
Barometer: 29.85 inHg , 1010.8 hPa
Clouds: Clear
Visibility: 10 miles , 16 km
2017/06/29 08:35 KMER 290835Z AUTO 29003KT 10SM CLR 18/11 A2985 RMK AO1
 
KAUN - Auburn Muni, California, USA
Distance from station: NW 63mi, 101km
Updated: Thu, 29-Jun-2017 1:55am PDT
Clear
Clear
 Wind from E
Wind: E 3 mph , 6 km/h
Temperature: 70°F , 21°C
Dew Point: 52°F , 11°C
Humidity: 53%
Barometer: 29.90 inHg , 1012.5 hPa
Clouds: Clear
Visibility: 10 miles , 16 km
2017/06/29 08:55 KAUN 290855Z AUTO 08003KT 10SM CLR 21/11 A2990 RMK AO1
KMCC - Mcclellan Afb, California, USA
Distance from station: WNW 64mi, 103km
Updated: Thu, 29-Jun-2017 1:35am PDT
Clear
Clear
 Wind from SSE
Wind: SSE 7 mph , 11 km/h
Temperature: 63°F , 17°C
Dew Point: 52°F , 11°C
Humidity: 68%
Barometer: 29.86 inHg , 1011.2 hPa
Clouds: Clear
Visibility: 10 miles , 16 km
2017/06/29 08:35 KMCC 290835Z AUTO 15006KT 10SM CLR 17/11 A2986 RMK AO2
 
KSAC - Sacramento, California, USA
Distance from station: WNW 65mi, 104km
Updated: Thu, 29-Jun-2017 1:53am PDT
Clear
Clear
 Wind from S
Wind: S 5 mph , 7 km/h
Temperature: 61°F , 16°C
Dew Point: 54°F , 12°C
Humidity: 77%
Barometer: 29.85 inHg , 1010.8 hPa
Clouds: Clear
Visibility: 10 miles , 16 km
2017/06/29 08:53 KSAC 290853Z AUTO 17004KT 10SM CLR 16/12 A2985 RMK AO2 SLP108 T01560122 51005
KMCE - Merced, California, USA
Distance from station: S 67mi, 108km
Updated: Thu, 29-Jun-2017 1:53am PDT
Clear
Clear
 Wind from WNW
Wind: WNW 5 mph , 7 km/h
Temperature: 66°F , 19°C
Dew Point: 52°F , 11°C
Humidity: 60%
Barometer: 29.84 inHg , 1010.5 hPa
Clouds: Clear
Visibility: 10 miles , 16 km
2017/06/29 08:53 KMCE 290853Z AUTO 30004KT 10SM CLR 19/11 A2984 RMK AO2 SLP104 T01890106 50002
 
KLHM - Lincoln, California, USA
Distance from station: NW 71mi, 115km
Updated: Thu, 29-Jun-2017 1:55am PDT
Clear
Clear
 Wind from S
Wind: S 7 mph , 11 km/h
Temperature: 64°F , 18°C
Dew Point: 52°F , 11°C
Humidity: 64%
Barometer: 29.84 inHg , 1010.5 hPa
Clouds: Clear
Visibility: 10 miles , 16 km
2017/06/29 08:55 KLHM 290855Z AUTO 17006KT 10SM CLR 18/11 A2984 RMK AO1
KCXP - Carson City, Nevada, USA
Distance from station: NNE 72mi, 117km
Updated: Thu, 29-Jun-2017 1:55am PDT
Clear
Clear
 Wind from calm
Wind: Calm
Temperature: 55°F , 13°C
Dew Point: 37°F , 3°C
Humidity: 51%
Barometer: 30.08 inHg , 1018.6 hPa
Clouds: Clear
Visibility: 10 miles , 16 km
2017/06/29 08:55 KCXP 290855Z AUTO 00000KT 10SM CLR 13/03 A3008 RMK AO2
 
KBLU - Emigrant Gap, California, USA
Distance from station: NNW 74mi, 119km
Updated: Thu, 29-Jun-2017 1:52am PDT
Clear
Clear
 Wind from NE
Wind: NE 3 mph , 6 km/h
Temperature: 63°F , 17°C
Dew Point: 41°F , 5°C
Humidity: 45%
Barometer: 30.13 inHg , 1020.3 hPa
Clouds: Clear
Visibility: 10 miles , 16 km
2017/06/29 08:52 KBLU 290852Z AUTO 04003KT 10SM CLR 17/05 A3013 RMK AO2 SLP111 T01670050 58002 TSNO
KSMF - Sacramento/Metro, California, USA
Distance from station: WNW 75mi, 120km
Updated: Thu, 29-Jun-2017 1:53am PDT
Clear
Clear
 Wind from SSE
Wind: SSE 10 mph , 17 km/h
Temperature: 63°F , 17°C
Dew Point: 54°F , 12°C
Humidity: 73%
Barometer: 29.83 inHg , 1010.2 hPa
Clouds: Clear
Visibility: 10 miles , 16 km
2017/06/29 08:53 KSMF 290853Z 15009KT 10SM CLR 17/12 A2983 RMK AO2 SLP102 T01670122 50006
 
KTRK - Truckee Tahoe, California, USA
Distance from station: N 75mi, 120km
Updated: Thu, 29-Jun-2017 1:35am PDT
Clear
Clear
 Wind from calm
Wind: Calm
Temperature: 39°F , 4°C
Dew Point: 34°F , 1°C
Humidity: 81%
Barometer: 30.18 inHg , 1022 hPa
Clouds: Clear
Visibility: 10 miles , 16 km
2017/06/29 08:35 KTRK 290835Z AUTO 00000KT 10SM CLR 04/01 A3018 RMK AO2
KGOO - Grass Valley, California, USA
Distance from station: NNW 76mi, 122km
Updated: Fri, 05-May-2017 6:55am PDT
NOT Current
Clear
Clear
 Wind from SE
Wind: SE 3 mph , 6 km/h
Temperature: 59°F , 15°C
Dew Point: 46°F , 8°C
Humidity: 63%
Barometer: 29.93 inHg , 1013.5 hPa
Clouds: Clear
Visibility: 10 miles , 16 km
2017/05/05 13:55 KGOO 051355Z AUTO 14003KT 10SM CLR 15/08 A2993 RMK AO1

spacer wunderground wow PWS SWWN Image Map